sensor_id;sensor_type;location;lat;lon;timestamp;pressure;altitude;pressure_sealevel;temperature;humidity
60433;BME280;46286;48.098;11.590;2022-07-12T00:00:57;96123.91;;;15.52;100.00
60433;BME280;46286;48.098;11.590;2022-07-12T00:03:22;96124.50;;;15.49;100.00
60433;BME280;46286;48.098;11.590;2022-07-12T00:05:48;96128.06;;;15.58;100.00
60433;BME280;46286;48.098;11.590;2022-07-12T00:08:13;96120.16;;;15.53;100.00
60433;BME280;46286;48.098;11.590;2022-07-12T00:10:39;96132.88;;;15.56;100.00
60433;BME280;46286;48.098;11.590;2022-07-12T00:13:04;96128.69;;;15.50;100.00
60433;BME280;46286;48.098;11.590;2022-07-12T00:15:30;96135.88;;;15.49;100.00
60433;BME280;46286;48.098;11.590;2022-07-12T00:17:55;96124.06;;;15.41;100.00
60433;BME280;46286;48.098;11.590;2022-07-12T00:20:21;96137.66;;;15.35;100.00
60433;BME280;46286;48.098;11.590;2022-07-12T00:22:47;96131.03;;;15.32;100.00
60433;BME280;46286;48.098;11.590;2022-07-12T00:25:13;96135.28;;;15.33;100.00
60433;BME280;46286;48.098;11.590;2022-07-12T00:27:39;96134.28;;;15.29;100.00
60433;BME280;46286;48.098;11.590;2022-07-12T00:30:06;96140.06;;;15.31;100.00
60433;BME280;46286;48.098;11.590;2022-07-12T00:32:33;96131.19;;;15.22;100.00
60433;BME280;46286;48.098;11.590;2022-07-12T00:34:58;96136.59;;;15.36;100.00
60433;BME280;46286;48.098;11.590;2022-07-12T00:37:24;96134.31;;;15.24;100.00
60433;BME280;46286;48.098;11.590;2022-07-12T00:39:50;96131.75;;;15.19;100.00
60433;BME280;46286;48.098;11.590;2022-07-12T00:42:17;96135.47;;;15.18;100.00
60433;BME280;46286;48.098;11.590;2022-07-12T00:44:42;96132.53;;;14.95;100.00
60433;BME280;46286;48.098;11.590;2022-07-12T00:47:08;96138.59;;;15.20;100.00
60433;BME280;46286;48.098;11.590;2022-07-12T00:49:44;96136.31;;;15.13;100.00
60433;BME280;46286;48.098;11.590;2022-07-12T00:52:10;96137.72;;;15.05;100.00
60433;BME280;46286;48.098;11.590;2022-07-12T00:54:35;96130.72;;;15.15;100.00
60433;BME280;46286;48.098;11.590;2022-07-12T00:57:02;96136.66;;;15.06;100.00
60433;BME280;46286;48.098;11.590;2022-07-12T00:59:28;96136.16;;;15.04;100.00
60433;BME280;46286;48.098;11.590;2022-07-12T01:01:53;96134.28;;;15.05;100.00
60433;BME280;46286;48.098;11.590;2022-07-12T01:04:19;96127.63;;;15.07;100.00
60433;BME280;46286;48.098;11.590;2022-07-12T01:06:45;96123.41;;;15.06;100.00
60433;BME280;46286;48.098;11.590;2022-07-12T01:09:10;96126.66;;;14.98;100.00
60433;BME280;46286;48.098;11.590;2022-07-12T01:11:37;96131.56;;;14.86;100.00
60433;BME280;46286;48.098;11.590;2022-07-12T01:14:03;96131.63;;;14.81;100.00
60433;BME280;46286;48.098;11.590;2022-07-12T01:16:30;96131.69;;;14.76;100.00
60433;BME280;46286;48.098;11.590;2022-07-12T01:18:57;96134.78;;;14.83;100.00
60433;BME280;46286;48.098;11.590;2022-07-12T01:21:26;96125.88;;;14.73;100.00
60433;BME280;46286;48.098;11.590;2022-07-12T01:23:53;96130.13;;;14.69;100.00
60433;BME280;46286;48.098;11.590;2022-07-12T01:26:19;96141.56;;;14.65;100.00
60433;BME280;46286;48.098;11.590;2022-07-12T01:28:45;96142.41;;;14.60;100.00
60433;BME280;46286;48.098;11.590;2022-07-12T01:31:10;96145.59;;;14.57;100.00
60433;BME280;46286;48.098;11.590;2022-07-12T01:33:36;96140.91;;;14.49;100.00
60433;BME280;46286;48.098;11.590;2022-07-12T01:36:02;96142.03;;;14.43;100.00
60433;BME280;46286;48.098;11.590;2022-07-12T01:38:28;96143.13;;;14.36;100.00
60433;BME280;46286;48.098;11.590;2022-07-12T01:40:53;96133.88;;;14.34;100.00
60433;BME280;46286;48.098;11.590;2022-07-12T01:43:19;96134.16;;;14.32;100.00
60433;BME280;46286;48.098;11.590;2022-07-12T01:45:44;96133.16;;;14.23;100.00
60433;BME280;46286;48.098;11.590;2022-07-12T01:48:10;96131.66;;;14.12;100.00
60433;BME280;46286;48.098;11.590;2022-07-12T01:50:35;96129.06;;;14.07;100.00
60433;BME280;46286;48.098;11.590;2022-07-12T01:53:05;96136.47;;;14.10;100.00
60433;BME280;46286;48.098;11.590;2022-07-12T01:55:31;96129.13;;;13.96;100.00
60433;BME280;46286;48.098;11.590;2022-07-12T01:57:57;96138.22;;;13.85;100.00
60433;BME280;46286;48.098;11.590;2022-07-12T02:00:23;96131.34;;;13.84;100.00
60433;BME280;46286;48.098;11.590;2022-07-12T02:02:48;96142.97;;;13.83;100.00
60433;BME280;46286;48.098;11.590;2022-07-12T02:05:14;96133.50;;;13.77;100.00
60433;BME280;46286;48.098;11.590;2022-07-12T02:07:39;96137.25;;;13.71;100.00
60433;BME280;46286;48.098;11.590;2022-07-12T02:10:06;96133.00;;;13.69;100.00
60433;BME280;46286;48.098;11.590;2022-07-12T02:12:32;96138.25;;;13.75;100.00
60433;BME280;46286;48.098;11.590;2022-07-12T02:14:58;96134.00;;;13.79;100.00
60433;BME280;46286;48.098;11.590;2022-07-12T02:17:23;96127.94;;;13.78;100.00
60433;BME280;46286;48.098;11.590;2022-07-12T02:19:49;96132.94;;;13.80;100.00
60433;BME280;46286;48.098;11.590;2022-07-12T02:22:14;96127.69;;;13.75;100.00
60433;BME280;46286;48.098;11.590;2022-07-12T02:24:40;96128.22;;;13.72;100.00
60433;BME280;46286;48.098;11.590;2022-07-12T02:27:06;96120.34;;;13.66;100.00
60433;BME280;46286;48.098;11.590;2022-07-12T02:29:31;96126.97;;;13.64;100.00
60433;BME280;46286;48.098;11.590;2022-07-12T02:31:57;96123.00;;;13.61;100.00
60433;BME280;46286;48.098;11.590;2022-07-12T02:34:23;96122.50;;;13.54;100.00
60433;BME280;46286;48.098;11.590;2022-07-12T02:36:48;96124.66;;;13.52;100.00
60433;BME280;46286;48.098;11.590;2022-07-12T02:39:14;96127.31;;;13.42;100.00
60433;BME280;46286;48.098;11.590;2022-07-12T02:41:39;96127.56;;;13.50;100.00
60433;BME280;46286;48.098;11.590;2022-07-12T02:44:05;96134.75;;;13.45;100.00
60433;BME280;46286;48.098;11.590;2022-07-12T02:46:30;96133.16;;;13.39;100.00
60433;BME280;46286;48.098;11.590;2022-07-12T02:48:56;96126.28;;;13.32;100.00
60433;BME280;46286;48.098;11.590;2022-07-12T02:51:23;96128.94;;;13.27;100.00
60433;BME280;46286;48.098;11.590;2022-07-12T02:53:48;96118.91;;;13.24;100.00
60433;BME280;46286;48.098;11.590;2022-07-12T02:56:14;96135.03;;;13.28;100.00
60433;BME280;46286;48.098;11.590;2022-07-12T02:58:39;96128.94;;;13.27;100.00
60433;BME280;46286;48.098;11.590;2022-07-12T03:01:05;96133.50;;;13.22;100.00
60433;BME280;46286;48.098;11.590;2022-07-12T03:03:30;96121.59;;;13.19;100.00
60433;BME280;46286;48.098;11.590;2022-07-12T03:05:56;96133.78;;;13.10;100.00
60433;BME280;46286;48.098;11.590;2022-07-12T03:08:22;96129.31;;;13.00;100.00
60433;BME280;46286;48.098;11.590;2022-07-12T03:10:48;96130.13;;;13.00;100.00
60433;BME280;46286;48.098;11.590;2022-07-12T03:13:13;96131.72;;;12.91;100.00
60433;BME280;46286;48.098;11.590;2022-07-12T03:15:39;96129.09;;;12.86;100.00
60433;BME280;46286;48.098;11.590;2022-07-12T03:18:04;96136.50;;;12.84;100.00
60433;BME280;46286;48.098;11.590;2022-07-12T03:20:30;96135.69;;;12.78;100.00
60433;BME280;46286;48.098;11.590;2022-07-12T03:22:56;96139.94;;;12.79;100.00
60433;BME280;46286;48.098;11.590;2022-07-12T03:25:23;96131.78;;;12.76;100.00
60433;BME280;46286;48.098;11.590;2022-07-12T03:27:49;96137.06;;;12.76;100.00
60433;BME280;46286;48.098;11.590;2022-07-12T03:30:15;96140.19;;;12.73;100.00
60433;BME280;46286;48.098;11.590;2022-07-12T03:32:41;96144.97;;;12.65;100.00
60433;BME280;46286;48.098;11.590;2022-07-12T03:35:07;96140.75;;;12.59;100.00
60433;BME280;46286;48.098;11.590;2022-07-12T03:37:53;96139.19;;;12.63;100.00
60433;BME280;46286;48.098;11.590;2022-07-12T03:40:20;96147.63;;;12.60;100.00
60433;BME280;46286;48.098;11.590;2022-07-12T03:42:47;96141.81;;;12.63;100.00
60433;BME280;46286;48.098;11.590;2022-07-12T03:45:13;96137.63;;;12.57;100.00
60433;BME280;46286;48.098;11.590;2022-07-12T03:47:39;96142.88;;;12.57;100.00
60433;BME280;46286;48.098;11.590;2022-07-12T03:50:07;96151.59;;;12.63;100.00
60433;BME280;46286;48.098;11.590;2022-07-12T03:52:34;96145.50;;;12.62;100.00
60433;BME280;46286;48.098;11.590;2022-07-12T03:55:00;96151.31;;;12.59;100.00
60433;BME280;46286;48.098;11.590;2022-07-12T03:57:28;96146.59;;;12.56;100.00
60433;BME280;46286;48.098;11.590;2022-07-12T03:59:54;96152.91;;;12.55;100.00
60433;BME280;46286;48.098;11.590;2022-07-12T04:02:19;96160.56;;;12.62;100.00
60433;BME280;46286;48.098;11.590;2022-07-12T04:04:45;96156.34;;;12.66;100.00
60433;BME280;46286;48.098;11.590;2022-07-12T04:07:11;96159.22;;;12.80;100.00
60433;BME280;46286;48.098;11.590;2022-07-12T04:09:36;96158.69;;;12.78;100.00
60433;BME280;46286;48.098;11.590;2022-07-12T04:12:02;96165.03;;;12.82;100.00
60433;BME280;46286;48.098;11.590;2022-07-12T04:14:28;96165.03;;;12.82;100.00
60433;BME280;46286;48.098;11.590;2022-07-12T04:16:56;96172.94;;;12.87;100.00
60433;BME280;46286;48.098;11.590;2022-07-12T04:19:22;96171.34;;;12.96;100.00
60433;BME280;46286;48.098;11.590;2022-07-12T04:21:56;96167.88;;;13.01;100.00
60433;BME280;46286;48.098;11.590;2022-07-12T04:24:22;96171.84;;;13.04;100.00
60433;BME280;46286;48.098;11.590;2022-07-12T04:26:48;96173.41;;;13.10;100.00
60433;BME280;46286;48.098;11.590;2022-07-12T04:29:15;96174.41;;;13.24;100.00
60433;BME280;46286;48.098;11.590;2022-07-12T04:31:41;96168.63;;;13.22;100.00
60433;BME280;46286;48.098;11.590;2022-07-12T04:34:06;96164.94;;;13.23;100.00
60433;BME280;46286;48.098;11.590;2022-07-12T04:36:32;96164.38;;;13.26;100.00
60433;BME280;46286;48.098;11.590;2022-07-12T04:38:58;96170.44;;;13.27;100.00
60433;BME280;46286;48.098;11.590;2022-07-12T04:41:23;96173.88;;;13.32;100.00
60433;BME280;46286;48.098;11.590;2022-07-12T04:43:49;96164.88;;;13.33;100.00
60433;BME280;46286;48.098;11.590;2022-07-12T04:46:14;96168.59;;;13.32;100.00
60433;BME280;46286;48.098;11.590;2022-07-12T04:48:40;96170.97;;;13.34;100.00
60433;BME280;46286;48.098;11.590;2022-07-12T04:51:06;96163.81;;;13.40;100.00
60433;BME280;46286;48.098;11.590;2022-07-12T04:53:31;96159.03;;;13.47;100.00
60433;BME280;46286;48.098;11.590;2022-07-12T04:55:57;96165.88;;;13.58;100.00
60433;BME280;46286;48.098;11.590;2022-07-12T04:58:23;96171.66;;;13.65;100.00
60433;BME280;46286;48.098;11.590;2022-07-12T05:00:49;96167.41;;;13.69;100.00
60433;BME280;46286;48.098;11.590;2022-07-12T05:03:15;96183.75;;;13.77;100.00
60433;BME280;46286;48.098;11.590;2022-07-12T05:05:41;96172.06;;;13.83;100.00
60433;BME280;46286;48.098;11.590;2022-07-12T05:08:06;96179.16;;;13.98;100.00
60433;BME280;46286;48.098;11.590;2022-07-12T05:10:32;96181.53;;;13.99;100.00
60433;BME280;46286;48.098;11.590;2022-07-12T05:12:57;96185.16;;;14.09;100.00
60433;BME280;46286;48.098;11.590;2022-07-12T05:15:23;96187.28;;;14.07;100.00
60433;BME280;46286;48.098;11.590;2022-07-12T05:17:48;96181.38;;;14.20;100.00
60433;BME280;46286;48.098;11.590;2022-07-12T05:20:14;96180.25;;;14.26;100.00
60433;BME280;46286;48.098;11.590;2022-07-12T05:22:39;96175.53;;;14.23;100.00
60433;BME280;46286;48.098;11.590;2022-07-12T05:25:07;96176.47;;;14.37;100.00
60433;BME280;46286;48.098;11.590;2022-07-12T05:27:34;96180.13;;;14.47;100.00
60433;BME280;46286;48.098;11.590;2022-07-12T05:30:00;96179.03;;;14.48;100.00
60433;BME280;46286;48.098;11.590;2022-07-12T05:32:26;96186.88;;;14.58;100.00
60433;BME280;46286;48.098;11.590;2022-07-12T05:34:51;96186.84;;;14.68;100.00
60433;BME280;46286;48.098;11.590;2022-07-12T05:37:17;96181.03;;;14.66;100.00
60433;BME280;46286;48.098;11.590;2022-07-12T05:39:42;96187.81;;;14.78;100.00
60433;BME280;46286;48.098;11.590;2022-07-12T05:42:08;96195.22;;;14.81;100.00
60433;BME280;46286;48.098;11.590;2022-07-12T05:44:34;96194.66;;;14.84;100.00
60433;BME280;46286;48.098;11.590;2022-07-12T05:46:59;96185.16;;;14.78;100.00
60433;BME280;46286;48.098;11.590;2022-07-12T05:49:25;96197.81;;;14.86;100.00
60433;BME280;46286;48.098;11.590;2022-07-12T05:51:50;96205.19;;;14.94;100.00
60433;BME280;46286;48.098;11.590;2022-07-12T05:54:35;96204.03;;;15.00;100.00
60433;BME280;46286;48.098;11.590;2022-07-12T05:57:00;96210.69;;;14.98;100.00
60433;BME280;46286;48.098;11.590;2022-07-12T05:59:26;96217.78;;;15.02;100.00
60433;BME280;46286;48.098;11.590;2022-07-12T06:01:53;96212.50;;;15.02;100.00
60433;BME280;46286;48.098;11.590;2022-07-12T06:04:19;96214.09;;;15.03;100.00
60433;BME280;46286;48.098;11.590;2022-07-12T06:06:44;96209.34;;;15.00;100.00
60433;BME280;46286;48.098;11.590;2022-07-12T06:09:10;96217.03;;;15.26;100.00
60433;BME280;46286;48.098;11.590;2022-07-12T06:11:35;96226.06;;;15.25;100.00
60433;BME280;46286;48.098;11.590;2022-07-12T06:14:00;96218.41;;;15.48;100.00
60433;BME280;46286;48.098;11.590;2022-07-12T06:16:26;96217.34;;;15.49;100.00
60433;BME280;46286;48.098;11.590;2022-07-12T06:18:52;96210.16;;;15.49;100.00
60433;BME280;46286;48.098;11.590;2022-07-12T06:21:17;96212.38;;;15.61;100.00
60433;BME280;46286;48.098;11.590;2022-07-12T06:23:42;96221.94;;;15.62;100.00
60433;BME280;46286;48.098;11.590;2022-07-12T06:26:08;96219.84;;;15.59;100.00
60433;BME280;46286;48.098;11.590;2022-07-12T06:28:33;96219.16;;;15.72;100.00
60433;BME280;46286;48.098;11.590;2022-07-12T06:31:01;96216.00;;;15.70;100.00
60433;BME280;46286;48.098;11.590;2022-07-12T06:33:26;96223.41;;;15.73;100.00
60433;BME280;46286;48.098;11.590;2022-07-12T06:35:52;96215.38;;;15.79;100.00
60433;BME280;46286;48.098;11.590;2022-07-12T06:38:17;96212.19;;;15.82;100.00
60433;BME280;46286;48.098;11.590;2022-07-12T06:40:42;96216.91;;;15.85;100.00
60433;BME280;46286;48.098;11.590;2022-07-12T06:43:11;96218.59;;;15.75;100.00
60433;BME280;46286;48.098;11.590;2022-07-12T06:45:38;96217.00;;;15.74;100.00
60433;BME280;46286;48.098;11.590;2022-07-12T06:48:04;96216.19;;;15.98;100.00
60433;BME280;46286;48.098;11.590;2022-07-12T06:50:30;96220.31;;;16.09;98.66
60433;BME280;46286;48.098;11.590;2022-07-12T06:52:56;96212.91;;;16.06;99.00
60433;BME280;46286;48.098;11.590;2022-07-12T06:55:22;96214.19;;;16.28;96.84
60433;BME280;46286;48.098;11.590;2022-07-12T06:57:50;96215.13;;;16.18;97.43
60433;BME280;46286;48.098;11.590;2022-07-12T07:00:16;96217.44;;;16.25;97.48
60433;BME280;46286;48.098;11.590;2022-07-12T07:02:41;96210.72;;;16.47;98.00
60433;BME280;46286;48.098;11.590;2022-07-12T07:05:07;96209.16;;;16.45;95.78
60433;BME280;46286;48.098;11.590;2022-07-12T07:07:34;96206.44;;;16.51;96.57
60433;BME280;46286;48.098;11.590;2022-07-12T07:10:00;96208.56;;;16.49;96.55
60433;BME280;46286;48.098;11.590;2022-07-12T07:12:25;96211.31;;;16.43;98.04
60433;BME280;46286;48.098;11.590;2022-07-12T07:14:51;96211.34;;;16.57;97.66
60433;BME280;46286;48.098;11.590;2022-07-12T07:17:17;96220.28;;;16.80;94.86
60433;BME280;46286;48.098;11.590;2022-07-12T07:19:43;96226.25;;;16.91;92.85
60433;BME280;46286;48.098;11.590;2022-07-12T07:22:10;96215.53;;;16.77;94.32
60433;BME280;46286;48.098;11.590;2022-07-12T07:24:35;96229.75;;;16.87;93.21
60433;BME280;46286;48.098;11.590;2022-07-12T07:27:01;96219.50;;;16.80;91.73
60433;BME280;46286;48.098;11.590;2022-07-12T07:29:27;96212.41;;;16.75;94.26
60433;BME280;46286;48.098;11.590;2022-07-12T07:32:11;96220.84;;;16.77;95.21
60433;BME280;46286;48.098;11.590;2022-07-12T07:34:37;96228.75;;;16.83;92.67
60433;BME280;46286;48.098;11.590;2022-07-12T07:37:03;96223.50;;;16.77;95.10
60433;BME280;46286;48.098;11.590;2022-07-12T07:39:28;96232.78;;;17.13;91.97
60433;BME280;46286;48.098;11.590;2022-07-12T07:41:54;96229.44;;;17.21;90.89
60433;BME280;46286;48.098;11.590;2022-07-12T07:44:19;96223.75;;;17.56;88.02
60433;BME280;46286;48.098;11.590;2022-07-12T07:46:45;96219.41;;;17.46;87.56
60433;BME280;46286;48.098;11.590;2022-07-12T07:49:10;96224.75;;;17.60;87.11
60433;BME280;46286;48.098;11.590;2022-07-12T07:51:35;96220.97;;;17.61;87.24
60433;BME280;46286;48.098;11.590;2022-07-12T07:54:01;96230.06;;;17.46;87.42
60433;BME280;46286;48.098;11.590;2022-07-12T07:56:28;96230.84;;;17.46;88.17
60433;BME280;46286;48.098;11.590;2022-07-12T07:58:54;96229.25;;;17.45;86.49
60433;BME280;46286;48.098;11.590;2022-07-12T08:01:20;96223.63;;;17.61;84.14
60433;BME280;46286;48.098;11.590;2022-07-12T08:03:45;96226.69;;;17.68;83.79
60433;BME280;46286;48.098;11.590;2022-07-12T08:06:10;96222.16;;;17.55;83.43
60433;BME280;46286;48.098;11.590;2022-07-12T08:08:36;96230.25;;;17.63;83.00
60433;BME280;46286;48.098;11.590;2022-07-12T08:11:01;96228.19;;;17.74;81.48
60433;BME280;46286;48.098;11.590;2022-07-12T08:13:27;96224.50;;;17.84;81.77
60433;BME280;46286;48.098;11.590;2022-07-12T08:15:52;96221.84;;;17.98;81.83
60433;BME280;46286;48.098;11.590;2022-07-12T08:18:18;96235.91;;;18.12;80.28
60433;BME280;46286;48.098;11.590;2022-07-12T08:20:43;96232.56;;;18.21;80.28
60433;BME280;46286;48.098;11.590;2022-07-12T08:23:09;96236.66;;;18.27;77.89
60433;BME280;46286;48.098;11.590;2022-07-12T08:25:35;96231.72;;;18.34;77.28
60433;BME280;46286;48.098;11.590;2022-07-12T08:28:00;96241.31;;;18.58;74.08
60433;BME280;46286;48.098;11.590;2022-07-12T08:30:26;96235.97;;;18.58;74.39
60433;BME280;46286;48.098;11.590;2022-07-12T08:32:51;96236.56;;;18.55;73.78
60433;BME280;46286;48.098;11.590;2022-07-12T08:35:26;96232.88;;;18.64;74.34
60433;BME280;46286;48.098;11.590;2022-07-12T08:37:52;96236.44;;;18.82;72.83
60433;BME280;46286;48.098;11.590;2022-07-12T08:40:17;96238.00;;;19.06;70.85
60433;BME280;46286;48.098;11.590;2022-07-12T08:42:43;96243.22;;;19.11;70.49
60433;BME280;46286;48.098;11.590;2022-07-12T08:45:10;96244.19;;;19.15;67.86
60433;BME280;46286;48.098;11.590;2022-07-12T08:47:36;96246.72;;;19.20;68.94
60433;BME280;46286;48.098;11.590;2022-07-12T08:50:18;96249.63;;;19.33;68.01
60433;BME280;46286;48.098;11.590;2022-07-12T08:52:45;96247.75;;;19.42;68.73
60433;BME280;46286;48.098;11.590;2022-07-12T08:57:53;96241.25;;;19.66;68.04
60433;BME280;46286;48.098;11.590;2022-07-12T09:00:19;96241.66;;;19.90;69.08
60433;BME280;46286;48.098;11.590;2022-07-12T09:05:25;96238.34;;;19.94;68.09
60433;BME280;46286;48.098;11.590;2022-07-12T09:07:51;96253.63;;;20.02;67.49
60433;BME280;46286;48.098;11.590;2022-07-12T09:10:26;96250.63;;;19.95;65.46
60433;BME280;46286;48.098;11.590;2022-07-12T09:12:51;96241.03;;;19.94;65.72
60433;BME280;46286;48.098;11.590;2022-07-12T09:15:21;96250.50;;;20.00;64.66
60433;BME280;46286;48.098;11.590;2022-07-12T09:17:57;96246.69;;;20.01;61.49
60433;BME280;46286;48.098;11.590;2022-07-12T09:20:28;96249.56;;;20.13;63.06
60433;BME280;46286;48.098;11.590;2022-07-12T09:22:57;96250.50;;;20.00;62.86
60433;BME280;46286;48.098;11.590;2022-07-12T09:25:23;96251.66;;;19.76;62.23
60433;BME280;46286;48.098;11.590;2022-07-12T09:27:57;96246.19;;;19.81;63.00
60433;BME280;46286;48.098;11.590;2022-07-12T09:30:24;96253.59;;;19.84;63.34
60433;BME280;46286;48.098;11.590;2022-07-12T09:32:56;96254.56;;;20.06;64.19
60433;BME280;46286;48.098;11.590;2022-07-12T09:35:40;96247.97;;;20.12;63.63
60433;BME280;46286;48.098;11.590;2022-07-12T09:38:26;96245.78;;;20.14;64.00
60433;BME280;46286;48.098;11.590;2022-07-12T09:40:53;96254.28;;;20.34;63.31
60433;BME280;46286;48.098;11.590;2022-07-12T09:43:19;96259.00;;;20.54;62.87
60433;BME280;46286;48.098;11.590;2022-07-12T09:45:48;96259.94;;;20.41;62.72
60433;BME280;46286;48.098;11.590;2022-07-12T09:48:15;96265.13;;;20.55;63.95
60433;BME280;46286;48.098;11.590;2022-07-12T09:50:44;96265.78;;;20.69;61.27
60433;BME280;46286;48.098;11.590;2022-07-12T09:53:14;96264.03;;;20.65;60.17
60433;BME280;46286;48.098;11.590;2022-07-12T09:55:42;96255.88;;;20.70;62.42
60433;BME280;46286;48.098;11.590;2022-07-12T09:58:12;96254.59;;;20.93;61.81
60433;BME280;46286;48.098;11.590;2022-07-12T10:00:38;96264.66;;;20.97;62.49
60433;BME280;46286;48.098;11.590;2022-07-12T10:03:04;96255.13;;;21.25;63.08
60433;BME280;46286;48.098;11.590;2022-07-12T10:05:31;96271.19;;;21.25;60.43
60433;BME280;46286;48.098;11.590;2022-07-12T10:07:59;96266.47;;;21.22;61.48
60433;BME280;46286;48.098;11.590;2022-07-12T10:10:27;96264.31;;;21.07;62.04
60433;BME280;46286;48.098;11.590;2022-07-12T10:12:53;96264.84;;;21.39;60.52
60433;BME280;46286;48.098;11.590;2022-07-12T10:15:20;96272.13;;;21.29;60.56
60433;BME280;46286;48.098;11.590;2022-07-12T10:17:52;96262.06;;;21.26;60.20
60433;BME280;46286;48.098;11.590;2022-07-12T10:20:20;96266.06;;;21.50;60.28
60433;BME280;46286;48.098;11.590;2022-07-12T10:23:26;96275.75;;;21.81;58.68
60433;BME280;46286;48.098;11.590;2022-07-12T10:25:42;96270.59;;;21.67;58.60
60433;BME280;46286;48.098;11.590;2022-07-12T10:28:07;96268.94;;;21.45;58.97
60433;BME280;46286;48.098;11.590;2022-07-12T10:30:44;96266.06;;;21.50;59.66
60433;BME280;46286;48.098;11.590;2022-07-12T10:33:21;96271.19;;;21.25;60.80
60433;BME280;46286;48.098;11.590;2022-07-12T10:35:59;96271.94;;;21.43;60.02
60433;BME280;46286;48.098;11.590;2022-07-12T10:38:26;96264.25;;;22.02;59.23
60433;BME280;46286;48.098;11.590;2022-07-12T10:40:52;96258.41;;;22.29;56.23
60433;BME280;46286;48.098;11.590;2022-07-12T10:43:26;96259.28;;;22.42;54.80
60433;BME280;46286;48.098;11.590;2022-07-12T10:46:17;96254.13;;;22.37;55.92
60433;BME280;46286;48.098;11.590;2022-07-12T10:48:46;96264.56;;;22.72;55.33
60433;BME280;46286;48.098;11.590;2022-07-12T10:51:17;96266.66;;;22.66;55.45
60433;BME280;46286;48.098;11.590;2022-07-12T10:53:46;96272.63;;;22.51;56.03
60433;BME280;46286;48.098;11.590;2022-07-12T10:56:22;96264.66;;;21.91;56.65
60433;BME280;46286;48.098;11.590;2022-07-12T11:01:19;96253.44;;;22.19;57.66
60433;BME280;46286;48.098;11.590;2022-07-12T11:03:56;96253.16;;;22.75;55.66
60433;BME280;46286;48.098;11.590;2022-07-12T11:06:27;96257.91;;;22.57;54.00
60433;BME280;46286;48.098;11.590;2022-07-12T11:08:59;96255.94;;;23.58;54.66
60433;BME280;46286;48.098;11.590;2022-07-12T11:11:33;96256.84;;;23.50;51.62
60433;BME280;46286;48.098;11.590;2022-07-12T11:13:59;96255.00;;;23.17;52.85
60433;BME280;46286;48.098;11.590;2022-07-12T11:16:26;96254.50;;;22.69;51.73
60433;BME280;46286;48.098;11.590;2022-07-12T11:18:52;96259.13;;;22.81;52.09
60433;BME280;46286;48.098;11.590;2022-07-12T11:21:19;96257.41;;;23.10;53.37
60433;BME280;46286;48.098;11.590;2022-07-12T11:23:45;96260.69;;;23.15;50.97
60433;BME280;46286;48.098;11.590;2022-07-12T11:26:12;96260.41;;;23.79;48.42
60433;BME280;46286;48.098;11.590;2022-07-12T11:28:39;96260.13;;;25.02;48.56
60433;BME280;46286;48.098;11.590;2022-07-12T11:31:07;96248.53;;;25.30;45.34
60433;BME280;46286;48.098;11.590;2022-07-12T11:33:35;96248.56;;;25.62;43.15
60433;BME280;46286;48.098;11.590;2022-07-12T11:36:06;96237.50;;;26.19;41.85
60433;BME280;46286;48.098;11.590;2022-07-12T11:38:33;96235.09;;;24.86;45.37
60433;BME280;46286;48.098;11.590;2022-07-12T11:41:02;96235.59;;;24.76;46.69
60433;BME280;46286;48.098;11.590;2022-07-12T11:43:29;96240.97;;;23.94;48.10
60433;BME280;46286;48.098;11.590;2022-07-12T11:45:55;96234.69;;;23.65;48.17
60433;BME280;46286;48.098;11.590;2022-07-12T11:48:22;96243.59;;;24.19;47.35
60433;BME280;46286;48.098;11.590;2022-07-12T11:50:53;96240.97;;;24.35;48.83
60433;BME280;46286;48.098;11.590;2022-07-12T11:53:24;96229.56;;;24.66;47.36
60433;BME280;46286;48.098;11.590;2022-07-12T11:55:52;96241.38;;;23.84;46.91
60433;BME280;46286;48.098;11.590;2022-07-12T11:58:19;96243.19;;;23.67;46.96
60433;BME280;46286;48.098;11.590;2022-07-12T12:00:47;96240.94;;;23.45;47.73
60433;BME280;46286;48.098;11.590;2022-07-12T12:03:14;96241.50;;;23.38;48.16
60433;BME280;46286;48.098;11.590;2022-07-12T12:05:41;96240.94;;;23.57;47.13
60433;BME280;46286;48.098;11.590;2022-07-12T12:08:08;96236.91;;;24.82;47.26
60433;BME280;46286;48.098;11.590;2022-07-12T12:10:35;96236.81;;;24.50;45.61
60433;BME280;46286;48.098;11.590;2022-07-12T12:13:01;96225.78;;;25.12;45.13
60433;BME280;46286;48.098;11.590;2022-07-12T12:15:32;96223.16;;;25.15;44.33
60433;BME280;46286;48.098;11.590;2022-07-12T12:18:06;96227.97;;;24.78;44.17
60433;BME280;46286;48.098;11.590;2022-07-12T12:20:39;96225.66;;;25.88;42.75
60433;BME280;46286;48.098;11.590;2022-07-12T12:23:27;96227.69;;;25.27;41.62
60433;BME280;46286;48.098;11.590;2022-07-12T12:26:08;96222.88;;;26.00;40.48
60433;BME280;46286;48.098;11.590;2022-07-12T12:28:50;96219.25;;;27.33;38.83
60433;BME280;46286;48.098;11.590;2022-07-12T12:31:17;96232.78;;;27.13;39.08
60433;BME280;46286;48.098;11.590;2022-07-12T12:33:44;96237.00;;;28.68;37.34
60433;BME280;46286;48.098;11.590;2022-07-12T12:36:23;96229.72;;;27.85;36.66
60433;BME280;46286;48.098;11.590;2022-07-12T12:38:50;96237.78;;;27.11;38.34
60433;BME280;46286;48.098;11.590;2022-07-12T12:41:16;96230.63;;;27.69;38.82
60433;BME280;46286;48.098;11.590;2022-07-12T12:43:42;96239.06;;;27.91;36.25
60433;BME280;46286;48.098;11.590;2022-07-12T12:46:08;96226.47;;;26.83;39.82
60433;BME280;46286;48.098;11.590;2022-07-12T12:48:34;96220.59;;;27.43;38.34
60433;BME280;46286;48.098;11.590;2022-07-12T12:53:30;96214.09;;;28.28;34.96
60433;BME280;46286;48.098;11.590;2022-07-12T12:55:56;96219.13;;;27.49;37.34